Details for Ryanair at GMMX




Go Back


Latest METAR
Local Time

GMMX 232330Z 26003KT 7000 BKN023 12/06 Q1003 NOSIG

23/02/2018, 23:49:50

Description
Results
Ryanair Logo
Number of Pilots based at GMMX
0 Pilots Based here
Number of Ryanair Flights Departed from GMMX
2 Flights Departed
Number of Ryanair Flights Arrived at GMMX
2 Flights Arrived
Number of Ryanair Schedules Departing from GMMX
29 Schedules
Number of Ryanair Schedules Arriving at GMMX
29 Schedules
Number of Ryanair Schedules Departing from GMMX availible today
7 Schedules Today
Number of Ryanair Schedules Arriving at GMMX availible today
7 Schedules Today
Average Landing Rate at GMMX
-218 fpm
Ryanair Average Landing Rate at GMMX
-167 fpm
Total Fuel Purchased at GMMX by Ryanair
8,806.04 kgs / 19,413.80 lbs

Pilots Based at GMMX


Pilot ID
Pilot Name
Pilot Rank
No. of Flights
No. of Flying Hours
There are no pilots assigned to this hub!   Will you be the first?
Content